aviador You're here:

UTAV Decoded Metar

CHARDZHOU in RUSSIA
Report Time2017-08-19 20:00:00
UTC Time2017-08-19 20:27:04
Flight Rules mvfr MVFR
Wind340° at 08 kt
W.Decomp.*RWY 33: 8.0 kt HW 0.8 kt RCW
W.Rank340° ranks 3
Current wind is above 340° avg. (6.6)
Visibility7000 m
Phenomena:N/A
Clouds:N/A
Expected CloudBase > 5,200 ft AGL from Temp-Dew spread
CeilingNone
Temp20°C (ISA +6)
Dew Point07°C (43% RH)
AAT16.4°C
QNH1012 hPa
Density Alt1,532 ft
Elevation630 ft
Report Wrong Elevation
Raw Report
UTAV 192000Z 34008KT 7000 SKC 20/07 Q1012 NOSIG=

Extra information for UTAV:More info

Metar Taf Metar & Taf Last 4 Metars F.Rules Stats Wind Profile Meteogram Temp Stats Airport Information Weather charts Add Link Nearby VenuesMetar ALERT Operation Metar Decoded Social comments